CheckWX is a tool to help pilots better visualize weather data.  It is not intended as a substitute for an official pre-flight weather briefing.

16:55:04 UTC

KMCF TAF
Macdill AFB Airport
Tampa, Florida, USA
TAF KMCF 181600Z 1816/1922 22006KT 9999 SCT035 BKN120 QNH2998INS TEMPO 1816/1818 24012G25KT 4800 -TSRA OVC015CB BECMG 1820/1821 23009KT 9999 SCT035 QNH2995INS BECMG 1900/1901 24006KT 9999 BKN015 BKN110 QNH2994INS BECMG 1916/1917 23009KT 8000 -SHRA SCT035 BKN120 QNH2992INS TEMPO 1918/1922 24015G25KT 4800 -TSRA SCT030CB BKN100 TX31/1819Z TN24/1909Z

Jun-18@
16:00 UTC

Jun-18 @ 16:00 UTC

Jun-18@
20:00 UTC

Jun-18 @ 20:00 UTC

TAF KMCF 181600Z 1816/1922 22006KT 9999 SCT035 BKN120 QNH2998INS
Wind
  • 220° at 6 KTS
Cloud Levels
  • Scattered at 3,500' AGL
  • Broken at 12,000' AGL

Jun-18@
16:00 UTC

Jun-18 @ 16:00 UTC

Jun-18@
18:00 UTC

Jun-18 @ 18:00 UTC

TEMPO 1816/1818 24012G25KT 4800 -TSRA OVC015CB

Temporary

Temporary Changes expected for less than half the time period

Wind
  • 240° at 12 KTS
  • {Gusting to 25 KTS
Conditions
Light Thunderstorm, Light Rain
Cloud Levels
  • Overcast at 1,500' AGL

Jun-18@
20:00 UTC

Jun-18 @ 20:00 UTC

Jun-19@
00:00 UTC

Jun-19 @ 00:00 UTC

BECMG 1820/1821 23009KT 9999 SCT035 QNH2995INS

Becoming

Becoming Conditions expected by Tue, Jun 18, 2019 @ 21:00 UTC

Wind
  • 230° at 9 KTS
Cloud Levels
  • Scattered at 3,500' AGL

Jun-19@
00:00 UTC

Jun-19 @ 00:00 UTC

Jun-19@
16:00 UTC

Jun-19 @ 16:00 UTC

BECMG 1900/1901 24006KT 9999 BKN015 BKN110 QNH2994INS

Becoming

Becoming Conditions expected by Wed, Jun 19, 2019 @ 01:00 UTC

Wind
  • 240° at 6 KTS
Cloud Levels
  • Broken at 1,500' AGL
  • Broken at 11,000' AGL

Jun-19@
16:00 UTC

Jun-19 @ 16:00 UTC

Jun-19@
22:00 UTC

Jun-19 @ 22:00 UTC

BECMG 1916/1917 23009KT 8000 -SHRA SCT035 BKN120 QNH2992INS

Becoming

Becoming Conditions expected by Wed, Jun 19, 2019 @ 17:00 UTC

Wind
  • 230° at 9 KTS
Conditions
Light Rain
Cloud Levels
  • Scattered at 3,500' AGL
  • Broken at 12,000' AGL

Jun-19@
18:00 UTC

Jun-19 @ 18:00 UTC

Jun-19@
22:00 UTC

Jun-19 @ 22:00 UTC

TEMPO 1918/1922 24015G25KT 4800 -TSRA SCT030CB BKN100 TX31/1819Z TN24/1909Z

Temporary

Temporary Changes expected for less than half the time period

Wind
  • 240° at 15 KTS
  • {Gusting to 25 KTS
Conditions
Light Thunderstorm, Light Rain
Cloud Levels
  • Scattered at 3,000' AGL
  • Broken at 10,000' AGL